Time;durP1;ratioP1;P1;durP2;ratioP2;P2;SDS_P1;SDS_P2;PMS_P1;PMS_P2;Temp;Humidity;BMP_temperature;BMP_pressure;BME280_temperature;BME280_humidity;BME280_pressure;Samples;Min_cycle;Max_cycle;Signal;HPM_P1;HPM_P2
2022/07/31 00:01:12;;;;;;;4.75;2.40;;;18.90;99.90;;;;;;5021743;28;20543;-57
2022/07/31 00:03:39;;;;;;;4.38;2.20;;;18.90;99.90;;;;;;4983416;28;20049;-56
2022/07/31 00:06:04;;;;;;;3.83;2.40;;;18.90;99.90;;;;;;5026901;28;20545;-52
2022/07/31 00:08:30;;;;;;;5.07;2.22;;;18.80;99.90;;;;;;5026669;28;20048;-55
2022/07/31 00:10:56;;;;;;;6.57;3.05;;;18.80;99.90;;;;;;5030775;28;20037;-52
2022/07/31 00:13:22;;;;;;;3.80;2.17;;;18.80;99.90;;;;;;5023695;28;20123;-56
2022/07/31 00:15:48;;;;;;;4.97;2.40;;;19.00;99.90;;;;;;5026906;28;20037;-54
2022/07/31 00:18:14;;;;;;;5.03;2.58;;;18.70;99.90;;;;;;5017601;28;20406;-56
2022/07/31 00:20:40;;;;;;;7.70;3.15;;;18.70;99.90;;;;;;5027057;28;20156;-54
2022/07/31 00:23:05;;;;;;;5.50;2.90;;;18.70;99.90;;;;;;5028243;28;20039;-53
2022/07/31 00:25:31;;;;;;;5.13;2.85;;;18.70;99.90;;;;;;5027106;28;20044;-54
2022/07/31 00:27:57;;;;;;;5.25;2.70;;;18.70;99.90;;;;;;5028167;28;20040;-55
2022/07/31 00:30:23;;;;;;;6.75;2.90;;;18.60;99.90;;;;;;5051064;28;20086;-56
2022/07/31 00:32:49;;;;;;;4.95;2.65;;;18.60;99.90;;;;;;5011526;28;20328;-53
2022/07/31 00:35:15;;;;;;;5.25;2.60;;;18.60;99.90;;;;;;5034767;28;20106;-54
2022/07/31 00:37:41;;;;;;;6.35;2.92;;;18.60;99.90;;;;;;5057569;28;20528;-56
2022/07/31 00:40:09;;;;;;;7.35;2.70;;;18.60;99.90;;;;;;5017562;28;20079;-54
2022/07/31 00:42:35;;;;;;;2.88;2.13;;;18.60;99.90;;;;;;5015192;28;20053;-54
2022/07/31 00:45:01;;;;;;;4.70;2.80;;;18.60;99.90;;;;;;5030803;28;20048;-55
2022/07/31 00:47:27;;;;;;;10.68;2.83;;;18.60;99.90;;;;;;5044260;28;20372;-56
2022/07/31 00:49:53;;;;;;;4.60;2.30;;;18.60;99.90;;;;;;5023930;28;20048;-55
2022/07/31 00:52:19;;;;;;;4.65;2.40;;;18.60;99.90;;;;;;5035275;28;20366;-55
2022/07/31 00:54:45;;;;;;;8.05;2.90;;;18.60;99.90;;;;;;5037318;28;20068;-54
2022/07/31 00:57:11;;;;;;;5.85;2.50;;;18.60;99.90;;;;;;5046994;28;20037;-56
2022/07/31 00:59:36;;;;;;;4.45;2.75;;;18.60;99.90;;;;;;5028677;28;20071;-54
2022/07/31 01:02:02;;;;;;;5.75;3.00;;;18.60;99.90;;;;;;5014200;28;20094;-55
2022/07/31 01:04:28;;;;;;;6.47;3.05;;;18.60;99.90;;;;;;5013780;28;20619;-53
2022/07/31 01:06:55;;;;;;;4.70;2.50;;;18.60;99.90;;;;;;5033924;28;20083;-54
2022/07/31 01:09:21;;;;;;;3.53;2.70;;;18.60;99.90;;;;;;5028409;28;20047;-55
2022/07/31 01:11:51;;;;;;;3.90;2.55;;;18.60;99.90;;;;;;5025667;28;20044;-52
2022/07/31 01:14:20;;;;;;;4.40;3.08;;;18.60;99.90;;;;;;5026833;28;20066;-55
2022/07/31 01:16:50;;;;;;;5.03;3.10;;;18.50;99.90;;;;;;5048189;28;20028;-54
2022/07/31 01:19:31;;;;;;;5.63;2.78;;;18.50;99.90;;;;;;5021102;28;20414;-56
2022/07/31 01:22:13;;;;;;;3.83;2.88;;;18.60;99.90;;;;;;5023571;28;20479;-55
2022/07/31 01:24:58;;;;;;;4.15;3.03;;;18.50;99.90;;;;;;5029038;28;20365;-54
2022/07/31 01:27:30;;;;;;;4.10;2.67;;;18.50;99.90;;;;;;5049959;28;20376;-55
2022/07/31 01:30:00;;;;;;;4.90;3.00;;;18.50;99.90;;;;;;5023523;28;20098;-55
2022/07/31 01:32:36;;;;;;;5.40;2.72;;;18.50;99.90;;;;;;5014644;28;20080;-55
2022/07/31 01:35:12;;;;;;;3.45;2.78;;;18.50;99.90;;;;;;5027888;28;20037;-53
2022/07/31 01:37:44;;;;;;;5.88;3.35;;;18.50;99.90;;;;;;5021713;28;20434;-55
2022/07/31 01:40:10;;;;;;;8.75;3.58;;;18.50;99.90;;;;;;5022253;28;20040;-55
2022/07/31 01:42:38;;;;;;;4.15;3.20;;;18.50;99.90;;;;;;5021202;28;20039;-55
2022/07/31 01:45:09;;;;;;;5.40;3.30;;;18.40;99.90;;;;;;5027356;28;20051;-55
2022/07/31 01:47:35;;;;;;;5.03;3.35;;;18.50;99.90;;;;;;5030462;28;20083;-55
2022/07/31 01:50:04;;;;;;;7.47;3.10;;;18.50;99.90;;;;;;5048781;28;20028;-56
2022/07/31 01:52:31;;;;;;;5.45;3.90;;;18.40;99.90;;;;;;5030259;28;20586;-57
2022/07/31 01:54:59;;;;;;;5.78;3.40;;;18.50;99.90;;;;;;5016699;28;20082;-58
2022/07/31 01:57:27;;;;;;;5.38;3.78;;;18.40;99.90;;;;;;5041897;28;20040;-56
2022/07/31 01:59:55;;;;;;;8.27;3.70;;;18.40;99.90;;;;;;5032457;28;20491;-54
2022/07/31 02:02:22;;;;;;;5.22;4.05;;;18.40;99.90;;;;;;5020648;28;20173;-56
2022/07/31 02:04:49;;;;;;;5.28;3.47;;;18.40;99.90;;;;;;5029969;28;20638;-54
2022/07/31 02:07:15;;;;;;;6.00;3.92;;;18.40;99.90;;;;;;5018718;28;20082;-54
2022/07/31 02:09:43;;;;;;;8.15;4.38;;;18.40;99.90;;;;;;5028123;28;20048;-56
2022/07/31 02:12:10;;;;;;;5.30;4.00;;;18.40;99.90;;;;;;5025167;28;20051;-55
2022/07/31 02:14:40;;;;;;;6.97;3.92;;;18.40;99.90;;;;;;5046999;28;20219;-56
2022/07/31 02:17:08;;;;;;;6.95;3.83;;;18.40;99.90;;;;;;5043322;28;20040;-56
2022/07/31 02:19:39;;;;;;;6.35;3.55;;;18.40;99.90;;;;;;5018597;28;20040;-53
2022/07/31 02:22:05;;;;;;;6.43;3.90;;;18.40;99.90;;;;;;5007868;28;20040;-57
2022/07/31 02:24:33;;;;;;;6.53;4.22;;;18.40;99.90;;;;;;5031163;28;20071;-55
2022/07/31 02:27:01;;;;;;;7.03;4.50;;;18.30;99.90;;;;;;5012248;28;20048;-54
2022/07/31 02:29:31;;;;;;;7.25;4.15;;;18.30;99.90;;;;;;5016523;28;20040;-56
2022/07/31 02:31:58;;;;;;;5.80;4.53;;;18.30;99.90;;;;;;5015261;28;20079;-55
2022/07/31 02:34:25;;;;;;;5.32;4.18;;;18.30;99.90;;;;;;5043184;28;20111;-55
2022/07/31 02:36:53;;;;;;;4.22;3.58;;;18.30;99.90;;;;;;5049093;28;20102;-55
2022/07/31 02:39:21;;;;;;;5.22;4.10;;;18.30;99.90;;;;;;5036571;28;20093;-55
2022/07/31 02:41:47;;;;;;;6.20;4.30;;;18.30;99.90;;;;;;5030639;28;20045;-57
2022/07/31 02:44:14;;;;;;;7.30;4.65;;;18.30;99.90;;;;;;5023375;28;20052;-55
2022/07/31 02:46:43;;;;;;;6.75;4.78;;;18.30;99.90;;;;;;5029352;28;20037;-53
2022/07/31 02:49:12;;;;;;;5.60;4.18;;;18.20;99.90;;;;;;5017832;28;20137;-55
2022/07/31 02:51:39;;;;;;;7.53;4.80;;;18.20;99.90;;;;;;5039009;28;20040;-57
2022/07/31 02:54:05;;;;;;;7.90;4.80;;;18.20;99.90;;;;;;5035611;28;20409;-56
2022/07/31 02:56:32;;;;;;;10.48;4.63;;;18.20;99.90;;;;;;5037887;28;20045;-55
2022/07/31 02:58:58;;;;;;;5.72;4.43;;;18.10;99.90;;;;;;5056959;28;20522;-56
2022/07/31 03:01:25;;;;;;;5.65;4.95;;;18.20;99.90;;;;;;5038271;28;20055;-57
2022/07/31 03:03:51;;;;;;;5.30;4.00;;;18.10;99.90;;;;;;5036337;28;20040;-52
2022/07/31 03:06:17;;;;;;;7.43;5.25;;;18.10;99.90;;;;;;5029146;28;20040;-56
2022/07/31 03:08:43;;;;;;;7.05;5.47;;;18.10;99.90;;;;;;5034005;28;20712;-54
2022/07/31 03:11:09;;;;;;;6.55;5.32;;;18.10;99.90;;;;;;5042417;28;20041;-57
2022/07/31 03:13:36;;;;;;;6.45;4.35;;;18.00;99.90;;;;;;5027576;28;20049;-54
2022/07/31 03:16:04;;;;;;;6.88;5.13;;;18.00;99.90;;;;;;5014016;28;20564;-53
2022/07/31 03:18:31;;;;;;;6.43;4.65;;;18.00;99.90;;;;;;5029743;28;20113;-57
2022/07/31 03:20:57;;;;;;;6.30;4.72;;;18.00;99.90;;;;;;5035806;28;20048;-57
2022/07/31 03:23:24;;;;;;;6.72;4.47;;;18.00;99.90;;;;;;5040568;28;20036;-57
2022/07/31 03:25:51;;;;;;;6.63;5.35;;;18.00;99.90;;;;;;5055410;28;20044;-56
2022/07/31 03:28:18;;;;;;;7.70;5.22;;;18.00;99.90;;;;;;5048313;28;20041;-54
2022/07/31 03:30:45;;;;;;;5.85;4.65;;;17.90;99.90;;;;;;5015307;28;20036;-55
2022/07/31 03:33:11;;;;;;;6.15;4.72;;;17.90;99.90;;;;;;5011477;28;20064;-55
2022/07/31 03:35:37;;;;;;;6.47;4.55;;;17.90;99.90;;;;;;5043094;28;20389;-53
2022/07/31 03:38:04;;;;;;;8.32;4.88;;;17.90;99.90;;;;;;5034861;28;20044;-56
2022/07/31 03:40:31;;;;;;;5.38;4.13;;;17.90;99.90;;;;;;5035783;28;20091;-56
2022/07/31 03:42:58;;;;;;;8.30;4.70;;;17.90;99.90;;;;;;5026913;28;20091;-56
2022/07/31 03:45:25;;;;;;;6.97;5.72;;;17.90;99.90;;;;;;5035636;28;20048;-56
2022/07/31 03:47:51;;;;;;;5.38;3.85;;;17.90;99.90;;;;;;5029309;28;20138;-56
2022/07/31 03:50:17;;;;;;;7.53;5.15;;;17.90;99.90;;;;;;5033960;28;20174;-53
2022/07/31 03:52:45;;;;;;;9.32;4.53;;;17.90;99.90;;;;;;5036075;28;20054;-55
2022/07/31 03:55:11;;;;;;;6.18;4.80;;;17.90;99.90;;;;;;5037970;28;20082;-56
2022/07/31 03:57:37;;;;;;;7.07;5.00;;;17.90;99.90;;;;;;5033112;28;20127;-54
2022/07/31 04:00:05;;;;;;;6.43;4.75;;;17.90;99.90;;;;;;5033717;28;20357;-55
2022/07/31 04:02:30;;;;;;;6.93;4.75;;;18.00;99.90;;;;;;5035435;28;20036;-56
2022/07/31 04:04:57;;;;;;;10.27;5.35;;;18.00;99.90;;;;;;5037062;28;20043;-56
2022/07/31 04:07:23;;;;;;;7.40;4.63;;;18.00;99.90;;;;;;5035266;28;20044;-54
2022/07/31 04:09:49;;;;;;;6.38;5.30;;;18.00;99.90;;;;;;5048132;28;20116;-57
2022/07/31 04:12:15;;;;;;;6.38;4.30;;;18.00;99.90;;;;;;5031045;28;20028;-57
2022/07/31 04:14:41;;;;;;;5.35;4.30;;;18.00;99.90;;;;;;5033509;28;20395;-57
2022/07/31 04:17:07;;;;;;;6.53;4.78;;;18.00;99.90;;;;;;5031830;28;20114;-55
2022/07/31 04:19:32;;;;;;;6.80;4.97;;;18.10;99.90;;;;;;5028474;28;20594;-57
2022/07/31 04:21:59;;;;;;;6.10;4.40;;;18.10;99.90;;;;;;5014342;28;20422;-56
2022/07/31 04:24:25;;;;;;;8.00;5.18;;;18.10;99.90;;;;;;5039418;28;20048;-56
2022/07/31 04:26:53;;;;;;;8.65;4.85;;;18.10;99.90;;;;;;5042669;28;20032;-55
2022/07/31 04:29:19;;;;;;;9.50;4.63;;;18.10;99.90;;;;;;5046242;28;20039;-57
2022/07/31 04:31:44;;;;;;;7.07;4.88;;;18.10;99.90;;;;;;5041523;28;20036;-56
2022/07/31 04:34:10;;;;;;;5.50;4.55;;;18.10;99.90;;;;;;5049816;28;20041;-57
2022/07/31 04:36:36;;;;;;;6.20;4.38;;;18.10;99.90;;;;;;5019471;28;20048;-58
2022/07/31 04:39:03;;;;;;;8.40;4.68;;;18.10;99.90;;;;;;5036336;28;20124;-57
2022/07/31 04:41:29;;;;;;;7.57;4.80;;;18.10;99.90;;;;;;5047119;28;20051;-55
2022/07/31 04:43:58;;;;;;;7.25;4.45;;;18.20;99.90;;;;;;5030352;28;20032;-54
2022/07/31 04:46:25;;;;;;;6.55;4.90;;;18.20;99.90;;;;;;5032973;28;20513;-57
2022/07/31 04:48:50;;;;;;;8.65;4.28;;;18.20;99.90;;;;;;5036470;28;20422;-56
2022/07/31 04:51:21;;;;;;;6.47;4.68;;;18.20;99.90;;;;;;5029052;28;20053;-56
2022/07/31 04:53:48;;;;;;;7.75;4.80;;;18.30;99.90;;;;;;5033691;28;20071;-54
2022/07/31 04:59:02;;;;;;;10.20;5.18;;;18.30;99.90;;;;;;5036650;28;20131;-53
2022/07/31 05:01:29;;;;;;;8.15;5.20;;;18.50;99.90;;;;;;5024676;28;20480;-56
2022/07/31 05:03:55;;;;;;;7.88;5.40;;;18.40;99.90;;;;;;5050372;28;20376;-57
2022/07/31 05:06:21;;;;;;;8.18;5.47;;;18.40;99.90;;;;;;5048485;22;20067;-57
2022/07/31 05:08:47;;;;;;;6.97;5.00;;;18.50;99.90;;;;;;5014222;28;20135;-55
2022/07/31 05:11:21;;;;;;;6.80;4.97;;;18.40;99.90;;;;;;5027377;28;20129;-56
2022/07/31 05:13:58;;;;;;;8.93;5.25;;;18.50;99.90;;;;;;5007742;28;20037;-56
2022/07/31 05:16:24;;;;;;;8.38;5.90;;;18.50;99.90;;;;;;5007061;28;20061;-57
2022/07/31 05:18:50;;;;;;;9.02;6.05;;;18.50;99.90;;;;;;5005873;28;20044;-58
2022/07/31 05:21:17;;;;;;;8.82;5.47;;;18.60;99.90;;;;;;5008337;28;20048;-58
2022/07/31 05:23:45;;;;;;;8.80;5.55;;;18.60;99.90;;;;;;5008477;28;21562;-58
2022/07/31 05:26:12;;;;;;;9.30;5.97;;;18.60;99.90;;;;;;5010082;28;20048;-57
2022/07/31 05:28:38;;;;;;;9.05;5.68;;;18.60;99.90;;;;;;5011156;28;21329;-55
2022/07/31 05:31:04;;;;;;;7.72;5.95;;;18.70;99.90;;;;;;5001186;28;20137;-57
2022/07/31 05:33:30;;;;;;;11.85;5.80;;;18.70;99.90;;;;;;5028325;28;20075;-57
2022/07/31 05:35:56;;;;;;;8.20;5.53;;;18.70;99.90;;;;;;4998623;28;20041;-57
2022/07/31 05:38:22;;;;;;;7.03;5.80;;;18.70;99.90;;;;;;5009364;28;20444;-56
2022/07/31 05:40:48;;;;;;;9.73;5.78;;;18.70;99.90;;;;;;5010839;28;20039;-57
2022/07/31 05:43:14;;;;;;;6.60;5.45;;;18.70;99.90;;;;;;5006159;28;20128;-56
2022/07/31 05:45:40;;;;;;;9.57;5.97;;;18.70;99.90;;;;;;5013049;28;20045;-56
2022/07/31 05:48:06;;;;;;;8.90;5.97;;;18.80;99.90;;;;;;5025020;28;20047;-58
2022/07/31 05:50:34;;;;;;;7.72;5.45;;;19.20;99.90;;;;;;5009025;28;20717;-58
2022/07/31 05:53:00;;;;;;;7.05;5.47;;;18.80;99.90;;;;;;5007473;28;20123;-58
2022/07/31 05:55:26;;;;;;;7.43;5.75;;;18.80;99.90;;;;;;5025275;28;20043;-58
2022/07/31 05:57:52;;;;;;;6.75;5.80;;;18.90;99.90;;;;;;5005756;28;20049;-56
2022/07/31 06:00:19;;;;;;;8.18;5.85;;;18.90;99.90;;;;;;5014270;28;20040;-58
2022/07/31 06:02:46;;;;;;;7.57;6.30;;;18.90;99.90;;;;;;5015291;28;20404;-56
2022/07/31 06:05:12;;;;;;;9.13;6.25;;;19.00;99.90;;;;;;5009661;28;20040;-57
2022/07/31 06:07:38;;;;;;;9.80;6.88;;;19.00;99.90;;;;;;5029556;28;20075;-57
2022/07/31 06:10:04;;;;;;;7.47;6.03;;;19.00;99.90;;;;;;4995067;28;20033;-58
2022/07/31 06:12:30;;;;;;;8.15;5.57;;;19.00;99.90;;;;;;5007050;28;20607;-58
2022/07/31 06:14:55;;;;;;;8.75;6.88;;;19.00;99.90;;;;;;5014257;28;20049;-58
2022/07/31 06:17:21;;;;;;;7.85;6.35;;;19.00;99.90;;;;;;5015374;28;20041;-57
2022/07/31 06:19:47;;;;;;;8.10;6.75;;;19.00;99.90;;;;;;5016172;28;20052;-58
2022/07/31 06:22:12;;;;;;;7.68;6.30;;;19.00;99.90;;;;;;5036682;28;20044;-57
2022/07/31 06:24:38;;;;;;;7.35;6.60;;;19.10;99.90;;;;;;5012386;28;20067;-58
2022/07/31 06:27:04;;;;;;;7.47;6.68;;;19.10;99.90;;;;;;5009766;28;20055;-58
2022/07/31 06:29:31;;;;;;;9.30;6.28;;;19.10;99.90;;;;;;5013460;28;20499;-57
2022/07/31 06:31:57;;;;;;;8.40;7.00;;;19.10;99.90;;;;;;4998979;28;20387;-58
2022/07/31 06:34:23;;;;;;;7.75;6.78;;;19.10;99.90;;;;;;5007574;28;20053;-59
2022/07/31 06:36:49;;;;;;;9.00;6.82;;;19.10;99.90;;;;;;5007548;28;20500;-58
2022/07/31 06:39:16;;;;;;;7.53;6.72;;;19.20;99.90;;;;;;5035234;28;20079;-58
2022/07/31 06:41:48;;;;;;;9.20;6.28;;;19.20;99.90;;;;;;5014193;28;20041;-58
2022/07/31 06:44:18;;;;;;;10.68;7.18;;;19.30;99.90;;;;;;5026379;28;20064;-58
2022/07/31 06:46:48;;;;;;;8.00;7.18;;;19.30;99.90;;;;;;4991551;28;20049;-58
2022/07/31 06:49:14;;;;;;;8.45;6.85;;;19.30;99.90;;;;;;4991382;28;20135;-58
2022/07/31 06:51:40;;;;;;;9.23;7.40;;;19.40;99.90;;;;;;5013011;28;20049;-58
2022/07/31 06:54:08;;;;;;;9.98;7.30;;;19.40;99.90;;;;;;5008236;28;20100;-58
2022/07/31 06:56:35;;;;;;;8.93;7.45;;;19.50;99.90;;;;;;5007519;28;20522;-57
2022/07/31 06:59:01;;;;;;;9.48;7.22;;;19.50;99.90;;;;;;5010704;28;20032;-58
2022/07/31 07:01:27;;;;;;;11.45;7.95;;;19.60;99.90;;;;;;5012739;28;20056;-58
2022/07/31 07:03:54;;;;;;;9.73;7.50;;;19.60;99.90;;;;;;4997038;28;20082;-58
2022/07/31 07:06:20;;;;;;;8.98;6.88;;;19.70;99.90;;;;;;5017075;28;20055;-58
2022/07/31 07:08:45;;;;;;;10.52;8.00;;;19.80;99.90;;;;;;5015764;28;20056;-58
2022/07/31 07:11:11;;;;;;;13.00;9.13;;;19.90;99.90;;;;;;5033888;28;20040;-57
2022/07/31 07:13:37;;;;;;;11.10;8.05;;;20.00;99.90;;;;;;5012957;28;20307;-58
2022/07/31 07:16:03;;;;;;;9.55;8.55;;;20.00;99.90;;;;;;4988591;28;20045;-56
2022/07/31 07:18:28;;;;;;;10.95;8.30;;;20.00;99.90;;;;;;5008791;28;20091;-58
2022/07/31 07:20:54;;;;;;;11.88;8.45;;;20.00;99.90;;;;;;5009985;28;20521;-57
2022/07/31 07:23:21;;;;;;;11.13;8.80;;;20.10;99.90;;;;;;5027918;28;20044;-56
2022/07/31 07:25:48;;;;;;;11.18;8.98;;;20.20;99.90;;;;;;5011533;28;20079;-57
2022/07/31 07:28:14;;;;;;;10.70;9.63;;;20.20;99.90;;;;;;5008342;28;20056;-58
2022/07/31 07:30:40;;;;;;;12.45;9.30;;;20.20;99.90;;;;;;5009827;28;20049;-57
2022/07/31 07:33:06;;;;;;;9.60;8.55;;;20.20;99.90;;;;;;4993651;28;20038;-58
2022/07/31 07:35:32;;;;;;;9.63;8.60;;;20.20;99.90;;;;;;5032287;28;20128;-56
2022/07/31 07:37:58;;;;;;;12.50;8.75;;;20.30;99.90;;;;;;5024915;28;20404;-59
2022/07/31 07:40:25;;;;;;;9.70;8.27;;;20.30;99.90;;;;;;4992325;28;20095;-58
2022/07/31 07:42:51;;;;;;;11.57;10.05;;;20.30;99.90;;;;;;5023627;28;20041;-59
2022/07/31 07:45:17;;;;;;;11.25;9.75;;;20.40;99.90;;;;;;4993582;28;20048;-58
2022/07/31 07:47:43;;;;;;;11.95;10.27;;;20.40;99.90;;;;;;5022815;28;20064;-58
2022/07/31 07:50:10;;;;;;;13.15;10.07;;;20.40;99.90;;;;;;5008923;28;20128;-58
2022/07/31 07:52:36;;;;;;;11.93;10.05;;;20.40;99.90;;;;;;5010018;28;20049;-58
2022/07/31 07:55:04;;;;;;;13.52;10.10;;;20.40;99.90;;;;;;5009273;28;20407;-58
2022/07/31 07:57:30;;;;;;;12.30;10.68;;;20.40;99.90;;;;;;5035935;28;20052;-58
2022/07/31 07:59:59;;;;;;;12.82;10.63;;;20.40;99.90;;;;;;5013671;28;20492;-58
2022/07/31 08:02:24;;;;;;;16.88;12.15;;;20.50;99.90;;;;;;5016383;28;20048;-57
2022/07/31 08:04:50;;;;;;;17.55;11.00;;;20.40;99.90;;;;;;5010065;28;20628;-58
2022/07/31 08:07:17;;;;;;;13.73;11.68;;;20.50;99.90;;;;;;5024100;28;20044;-58
2022/07/31 08:09:42;;;;;;;13.90;11.73;;;20.50;99.90;;;;;;5009206;28;20049;-58
2022/07/31 08:12:08;;;;;;;18.15;12.27;;;20.50;99.90;;;;;;4995561;28;20415;-59
2022/07/31 08:14:34;;;;;;;17.48;11.73;;;20.60;99.90;;;;;;5032134;28;20126;-59
2022/07/31 08:17:00;;;;;;;15.35;12.80;;;20.50;99.90;;;;;;4998210;28;20418;-58
2022/07/31 08:19:25;;;;;;;16.50;13.07;;;20.50;99.90;;;;;;5009403;28;20037;-57
2022/07/31 08:21:51;;;;;;;21.38;14.80;;;20.50;99.90;;;;;;5000057;28;20124;-59
2022/07/31 08:24:17;;;;;;;18.17;12.95;;;20.50;99.90;;;;;;5012100;28;20047;-59
2022/07/31 08:29:27;;;;;;;22.52;13.90;;;20.50;99.90;;;;;;5013839;28;20057;-59
2022/07/31 08:31:53;;;;;;;17.88;13.77;;;20.50;99.90;;;;;;5013666;28;20044;-59
2022/07/31 08:34:19;;;;;;;15.40;11.45;;;20.50;99.90;;;;;;4999614;28;20399;-57
2022/07/31 08:36:45;;;;;;;16.38;12.15;;;20.40;99.90;;;;;;5018996;28;20139;-58
2022/07/31 08:39:11;;;;;;;16.45;13.80;;;20.40;99.90;;;;;;5009284;28;20110;-58
2022/07/31 08:41:39;;;;;;;19.02;13.43;;;20.40;99.90;;;;;;4996994;28;20044;-58
2022/07/31 08:44:06;;;;;;;21.15;14.70;;;20.40;99.90;;;;;;5007740;28;20132;-59
2022/07/31 08:46:36;;;;;;;18.75;13.82;;;20.40;99.90;;;;;;5005395;28;20045;-58
2022/07/31 08:49:03;;;;;;;21.25;15.85;;;20.30;99.90;;;;;;5012914;28;20606;-58
2022/07/31 08:51:34;;;;;;;19.50;15.15;;;20.40;99.90;;;;;;5015386;28;20309;-58
2022/07/31 08:54:04;;;;;;;19.83;14.18;;;20.40;99.90;;;;;;5015552;28;20053;-58
2022/07/31 08:56:32;;;;;;;19.30;15.35;;;20.30;99.90;;;;;;4995256;28;20419;-59
2022/07/31 08:58:58;;;;;;;17.48;15.05;;;20.40;99.90;;;;;;5013984;28;20102;-58
2022/07/31 09:01:24;;;;;;;15.82;13.68;;;20.40;99.90;;;;;;4992973;28;20041;-58
2022/07/31 09:03:51;;;;;;;25.25;16.88;;;20.40;99.90;;;;;;5016635;28;20067;-57
2022/07/31 09:06:17;;;;;;;19.80;15.60;;;20.40;99.90;;;;;;5012208;28;20055;-58
2022/07/31 09:08:42;;;;;;;24.83;18.35;;;20.40;99.90;;;;;;5013100;28;20374;-58
2022/07/31 09:11:11;;;;;;;24.67;17.55;;;20.40;99.90;;;;;;5031249;28;20094;-59
2022/07/31 09:13:37;;;;;;;23.23;17.65;;;20.40;99.90;;;;;;5028300;28;20047;-58
2022/07/31 09:16:04;;;;;;;23.98;17.02;;;20.40;99.90;;;;;;5013346;28;20041;-58
2022/07/31 09:18:31;;;;;;;24.05;18.75;;;20.40;99.90;;;;;;5024433;28;20049;-58
2022/07/31 09:21:05;;;;;;;24.45;18.38;;;20.40;99.90;;;;;;5019597;28;20124;-58
2022/07/31 09:23:31;;;;;;;19.80;17.20;;;20.40;99.90;;;;;;5041349;28;20033;-57
2022/07/31 09:26:00;;;;;;;22.25;17.58;;;20.40;99.90;;;;;;5027268;28;20498;-55
2022/07/31 09:28:44;;;;;;;19.27;16.05;;;20.40;99.90;;;;;;5023778;28;20127;-57
2022/07/31 09:31:12;;;;;;;19.17;16.10;;;20.40;99.90;;;;;;5017928;28;20055;-59
2022/07/31 09:33:42;;;;;;;18.63;15.52;;;20.40;99.90;;;;;;5014613;28;20182;-58
2022/07/31 09:36:08;;;;;;;19.67;16.00;;;20.30;99.90;;;;;;5012675;28;20060;-57
2022/07/31 09:38:39;;;;;;;20.92;16.85;;;20.30;99.90;;;;;;5014210;28;20505;-58
2022/07/31 09:41:12;;;;;;;17.75;15.88;;;20.30;99.90;;;;;;5012772;28;20102;-58
2022/07/31 09:43:39;;;;;;;18.02;15.52;;;20.30;99.90;;;;;;5013238;28;20049;-58
2022/07/31 09:46:06;;;;;;;18.00;16.05;;;20.30;99.90;;;;;;5021722;28;20041;-59
2022/07/31 09:48:32;;;;;;;17.95;15.63;;;20.30;99.90;;;;;;5021080;28;20124;-59
2022/07/31 09:50:59;;;;;;;21.38;17.17;;;20.30;99.90;;;;;;5025176;28;20032;-57
2022/07/31 09:53:26;;;;;;;22.88;16.88;;;20.30;99.90;;;;;;5005999;28;20044;-58
2022/07/31 09:55:56;;;;;;;20.58;18.40;;;20.30;99.90;;;;;;5022693;28;20065;-57
2022/07/31 09:58:23;;;;;;;21.85;18.10;;;20.30;99.90;;;;;;5020322;28;20272;-58
2022/07/31 10:00:55;;;;;;;20.02;16.98;;;20.30;99.90;;;;;;5015668;28;20038;-57
2022/07/31 10:03:22;;;;;;;18.75;16.75;;;20.30;99.90;;;;;;5008014;28;20036;-58
2022/07/31 10:05:49;;;;;;;21.13;17.73;;;20.30;99.90;;;;;;5014197;28;20080;-58
2022/07/31 10:08:16;;;;;;;17.27;14.75;;;20.20;99.90;;;;;;5034531;28;20068;-57
2022/07/31 10:10:47;;;;;;;17.85;15.40;;;20.20;99.90;;;;;;5004007;28;20040;-57
2022/07/31 10:13:18;;;;;;;17.83;16.08;;;20.20;99.90;;;;;;5033763;28;20649;-59
2022/07/31 10:15:47;;;;;;;17.98;15.23;;;20.30;99.90;;;;;;5031024;28;20037;-58
2022/07/31 10:18:16;;;;;;;17.80;15.73;;;20.20;99.90;;;;;;5026320;28;20067;-59
2022/07/31 10:20:51;;;;;;;16.30;14.70;;;20.20;99.90;;;;;;5016804;28;20045;-58
2022/07/31 10:23:21;;;;;;;14.93;13.43;;;20.10;99.90;;;;;;5035313;28;20422;-58
2022/07/31 10:25:50;;;;;;;15.10;13.60;;;20.10;99.90;;;;;;5007579;28;20047;-58
2022/07/31 10:28:16;;;;;;;15.43;13.75;;;20.10;99.90;;;;;;4997652;28;20077;-58
2022/07/31 10:30:45;;;;;;;14.63;13.13;;;20.10;99.90;;;;;;5006939;28;20057;-57
2022/07/31 10:33:11;;;;;;;15.45;13.25;;;20.10;99.90;;;;;;5030885;28;20605;-59
2022/07/31 10:35:54;;;;;;;14.13;12.75;;;20.10;99.90;;;;;;5014247;28;20040;-57
2022/07/31 10:38:29;;;;;;;14.67;13.07;;;20.10;99.90;;;;;;5022534;28;20075;-59
2022/07/31 10:41:11;;;;;;;14.32;12.93;;;20.10;99.90;;;;;;5024321;28;20041;-58
2022/07/31 10:43:47;;;;;;;16.33;14.38;;;20.10;99.90;;;;;;5022701;28;20099;-57
2022/07/31 10:46:13;;;;;;;14.50;13.00;;;20.10;99.90;;;;;;5023770;28;20045;-58
2022/07/31 10:48:50;;;;;;;14.40;13.00;;;20.00;99.90;;;;;;5020526;28;20063;-59
2022/07/31 10:51:15;;;;;;;12.70;11.45;;;20.00;99.90;;;;;;5006810;28;20044;-59
2022/07/31 10:53:53;;;;;;;17.23;15.15;;;20.00;99.90;;;;;;5025961;28;20508;-59
2022/07/31 10:56:18;;;;;;;16.08;14.48;;;20.00;99.90;;;;;;5042465;28;20179;-59
2022/07/31 10:58:52;;;;;;;18.17;15.93;;;20.00;99.90;;;;;;5014772;28;20072;-59
2022/07/31 11:01:18;;;;;;;19.83;17.52;;;20.00;99.90;;;;;;5043008;28;20038;-59
2022/07/31 11:03:47;;;;;;;21.42;18.48;;;20.00;99.90;;;;;;5030042;28;20037;-59
2022/07/31 11:06:17;;;;;;;19.35;17.27;;;19.90;99.90;;;;;;5037417;28;20053;-58
2022/07/31 11:08:44;;;;;;;21.20;18.85;;;19.90;99.90;;;;;;5048908;22;20041;-66
2022/07/31 11:11:11;;;;;;;20.60;18.33;;;19.80;99.90;;;;;;5054601;28;20276;-67
2022/07/31 11:13:51;;;;;;;22.02;19.73;;;19.80;99.90;;;;;;5023796;28;20541;-67
2022/07/31 11:16:18;;;;;;;21.50;19.30;;;19.80;99.90;;;;;;5046219;28;20495;-66
2022/07/31 11:19:00;;;;;;;22.35;19.67;;;19.80;99.90;;;;;;5037384;28;20045;-66
2022/07/31 11:21:34;;;;;;;21.33;19.02;;;19.80;99.90;;;;;;5033880;28;20063;-67
2022/07/31 11:24:10;;;;;;;20.38;18.20;;;19.80;99.90;;;;;;5024910;28;20051;-66
2022/07/31 11:26:35;;;;;;;22.58;20.27;;;19.70;99.90;;;;;;5034363;28;20103;-66
2022/07/31 11:29:01;;;;;;;20.95;18.85;;;19.70;99.90;;;;;;5040518;28;20491;-66
2022/07/31 11:31:29;;;;;;;21.92;19.65;;;19.70;99.90;;;;;;5041809;28;20040;-67
2022/07/31 11:33:54;;;;;;;24.40;19.95;;;19.80;99.90;;;;;;5035299;28;20074;-68
2022/07/31 11:36:27;;;;;;;21.52;19.30;;;19.70;99.90;;;;;;5040591;28;20096;-67
2022/07/31 11:38:59;;;;;;;20.55;18.35;;;19.70;99.90;;;;;;5056856;28;20071;-66
2022/07/31 11:41:29;;;;;;;16.83;15.02;;;19.70;99.90;;;;;;5021595;28;20044;-67
2022/07/31 11:43:56;;;;;;;16.50;14.20;;;19.70;99.90;;;;;;5036942;28;20532;-69
2022/07/31 11:46:32;;;;;;;16.42;14.73;;;19.70;99.90;;;;;;5053075;28;20049;-67
2022/07/31 11:48:59;;;;;;;19.48;15.57;;;19.70;99.90;;;;;;5041743;28;20038;-66
2022/07/31 11:51:28;;;;;;;15.48;12.85;;;19.70;99.90;;;;;;5022215;28;20053;-66
2022/07/31 11:53:54;;;;;;;15.13;13.57;;;19.70;99.90;;;;;;5031548;28;20049;-67
2022/07/31 11:56:21;;;;;;;13.48;11.13;;;19.80;99.90;;;;;;5031266;28;20522;-67
2022/07/31 11:58:49;;;;;;;15.50;12.38;;;19.80;99.90;;;;;;5032367;28;20037;-67
2022/07/31 12:01:15;;;;;;;11.30;10.20;;;19.80;99.90;;;;;;5026626;28;20119;-67
2022/07/31 12:03:42;;;;;;;11.93;10.18;;;19.80;99.90;;;;;;5028196;28;20039;-67
2022/07/31 12:06:09;;;;;;;12.68;8.55;;;19.80;99.90;;;;;;5028312;28;20309;-67
2022/07/31 12:08:36;;;;;;;9.20;8.20;;;19.80;99.90;;;;;;5020392;28;20047;-67
2022/07/31 12:11:04;;;;;;;6.93;6.22;;;19.80;99.90;;;;;;5005248;28;20477;-67
2022/07/31 12:13:31;;;;;;;5.25;4.70;;;19.90;99.90;;;;;;5023098;28;20041;-65
2022/07/31 12:16:08;;;;;;;5.05;3.50;;;19.90;99.90;;;;;;5023297;28;20044;-66
2022/07/31 12:18:57;;;;;;;5.18;3.38;;;20.00;99.90;;;;;;5033561;28;20060;-65
2022/07/31 12:21:38;;;;;;;4.13;2.85;;;20.00;99.90;;;;;;5035595;28;20586;-66
2022/07/31 12:24:12;;;;;;;3.60;2.58;;;20.10;99.90;;;;;;5057300;28;20037;-66
2022/07/31 12:26:41;;;;;;;2.53;2.17;;;20.20;99.90;;;;;;5032132;28;20045;-66
2022/07/31 12:29:08;;;;;;;3.33;2.08;;;20.20;99.90;;;;;;5054491;28;20510;-66
2022/07/31 12:31:48;;;;;;;2.85;2.55;;;20.20;99.90;;;;;;5036205;28;20120;-67
2022/07/31 12:34:33;;;;;;;2.50;2.20;;;20.30;99.90;;;;;;5039890;28;20308;-67
2022/07/31 12:37:09;;;;;;;2.72;2.30;;;20.30;99.90;;;;;;5052080;28;20037;-66
2022/07/31 12:39:37;;;;;;;4.88;2.35;;;20.30;99.90;;;;;;5045639;28;20365;-67
2022/07/31 12:42:03;;;;;;;2.90;2.60;;;20.30;99.90;;;;;;5036202;28;20063;-66
2022/07/31 12:44:29;;;;;;;3.47;3.08;;;20.30;99.90;;;;;;5042402;28;20056;-66
2022/07/31 12:46:55;;;;;;;4.15;3.28;;;20.20;99.90;;;;;;5036300;28;20053;-65
2022/07/31 12:49:20;;;;;;;5.20;3.65;;;20.10;99.90;;;;;;5035111;28;20067;-65